Time;durP1;ratioP1;P1;durP2;ratioP2;P2;SDS_P1;SDS_P2;PMS_P1;PMS_P2;Temp;Humidity;BMP_temperature;BMP_pressure;BME280_temperature;BME280_humidity;BME280_pressure;Samples;Min_cycle;Max_cycle;Signal;HPM_P1;HPM_P2
2022/10/21 00:01:01;;;;;;;11.98;9.77;;;8.60;99.90;;;;;;5090987;28;20123;-51
2022/10/21 00:03:27;;;;;;;16.27;10.55;;;8.70;99.90;;;;;;5090294;28;20115;-52
2022/10/21 00:05:53;;;;;;;13.02;9.55;;;8.80;99.90;;;;;;5090175;28;20039;-53
2022/10/21 00:08:19;;;;;;;12.77;10.27;;;8.70;99.90;;;;;;5088638;28;20032;-51
2022/10/21 00:10:49;;;;;;;19.15;9.82;;;8.60;99.90;;;;;;5092814;28;20051;-53
2022/10/21 00:13:15;;;;;;;13.52;10.15;;;8.60;99.90;;;;;;5093580;28;20089;-51
2022/10/21 00:15:40;;;;;;;11.40;9.23;;;8.40;99.90;;;;;;5093670;28;20024;-50
2022/10/21 00:18:06;;;;;;;13.73;10.27;;;8.40;99.90;;;;;;5094549;28;20028;-52
2022/10/21 00:20:31;;;;;;;13.80;10.15;;;8.30;99.90;;;;;;5094531;28;20494;-53
2022/10/21 00:22:57;;;;;;;20.88;10.93;;;8.30;99.90;;;;;;5093271;28;20028;-51
2022/10/21 00:25:23;;;;;;;18.27;10.32;;;8.30;99.90;;;;;;5094436;28;20788;-52
2022/10/21 00:27:48;;;;;;;15.65;10.75;;;8.30;99.90;;;;;;5094368;28;20559;-53
2022/10/21 00:30:14;;;;;;;13.68;10.20;;;8.20;99.90;;;;;;5094276;28;20467;-51
2022/10/21 00:32:39;;;;;;;18.90;11.55;;;8.20;99.90;;;;;;5094272;28;20089;-51
2022/10/21 00:35:05;;;;;;;18.42;11.57;;;8.20;99.90;;;;;;5094195;28;20032;-51
2022/10/21 00:37:31;;;;;;;18.80;11.52;;;8.30;99.90;;;;;;5094175;28;20020;-51
2022/10/21 00:39:58;;;;;;;13.68;11.20;;;8.30;99.90;;;;;;5094231;28;20020;-51
2022/10/21 00:42:31;;;;;;;18.80;10.73;;;8.30;99.90;;;;;;5093993;28;20028;-51
2022/10/21 00:45:06;;;;;;;13.38;10.60;;;8.30;99.90;;;;;;5094053;28;20048;-52
2022/10/21 00:47:52;;;;;;;17.92;10.38;;;8.40;99.90;;;;;;5093961;28;20028;-51
2022/10/21 00:50:34;;;;;;;14.27;10.23;;;8.40;99.90;;;;;;5093842;28;20026;-50
2022/10/21 00:53:00;;;;;;;16.05;10.27;;;8.40;99.90;;;;;;5094080;28;20479;-53
2022/10/21 00:55:31;;;;;;;19.73;11.38;;;8.40;99.90;;;;;;5092421;28;20684;-53
2022/10/21 00:57:57;;;;;;;16.60;10.52;;;8.40;99.90;;;;;;5093817;28;20116;-51
2022/10/21 01:00:23;;;;;;;16.45;11.13;;;8.40;99.90;;;;;;5093642;28;20451;-51
2022/10/21 01:02:48;;;;;;;14.75;10.70;;;8.40;99.90;;;;;;5093844;28;20031;-50
2022/10/21 01:05:15;;;;;;;19.50;11.00;;;8.40;99.90;;;;;;5093545;28;20024;-51
2022/10/21 01:07:41;;;;;;;16.92;10.38;;;8.40;99.90;;;;;;5092114;28;20382;-52
2022/10/21 01:10:08;;;;;;;13.93;10.07;;;8.30;99.90;;;;;;5093469;28;20085;-51
2022/10/21 01:12:36;;;;;;;21.67;11.60;;;8.30;99.90;;;;;;5093616;28;20474;-52
2022/10/21 01:15:16;;;;;;;16.23;11.18;;;8.30;99.90;;;;;;5093486;28;20032;-53
2022/10/21 01:17:49;;;;;;;15.35;11.38;;;8.20;99.90;;;;;;5093413;28;20026;-52
2022/10/21 01:20:21;;;;;;;20.38;12.23;;;8.20;99.90;;;;;;5093398;28;20550;-51
2022/10/21 01:23:21;;;;;;;21.75;11.68;;;8.20;99.90;;;;;;5092276;28;20036;-52
2022/10/21 01:26:31;;;;;;;11.50;10.10;;;8.20;99.90;;;;;;5077101;28;20539;-53
2022/10/21 01:29:41;;;;;;;16.58;10.55;;;8.20;99.90;;;;;;5093361;28;20016;-52
2022/10/21 01:32:19;;;;;;;15.20;11.05;;;8.20;99.90;;;;;;5072911;28;20115;-52
2022/10/21 01:35:03;;;;;;;18.80;10.35;;;8.10;99.90;;;;;;5093060;28;20027;-53
2022/10/21 01:37:39;;;;;;;19.77;11.15;;;8.20;99.90;;;;;;5093140;28;20066;-51
2022/10/21 01:40:17;;;;;;;16.20;11.50;;;8.20;99.90;;;;;;5091587;28;20499;-51
2022/10/21 01:42:49;;;;;;;16.20;10.00;;;8.30;99.90;;;;;;5092953;28;20148;-50
2022/10/21 01:45:55;;;;;;;14.68;11.18;;;8.30;99.90;;;;;;5091576;28;20024;-53
2022/10/21 01:48:29;;;;;;;18.20;12.13;;;8.30;99.90;;;;;;5092847;28;20025;-52
2022/10/21 01:51:05;;;;;;;16.33;11.43;;;8.30;99.90;;;;;;5092735;28;20103;-52
2022/10/21 01:53:40;;;;;;;14.95;12.35;;;8.30;99.90;;;;;;5092593;28;20032;-52
2022/10/21 01:56:08;;;;;;;16.77;11.05;;;8.30;99.90;;;;;;5092803;28;20628;-51
2022/10/21 01:58:36;;;;;;;18.52;12.35;;;8.40;99.90;;;;;;5092723;28;20085;-52
2022/10/21 02:01:05;;;;;;;18.15;11.88;;;8.50;99.90;;;;;;5092376;28;20459;-54
2022/10/21 02:03:36;;;;;;;16.52;11.82;;;8.50;99.90;;;;;;5092258;28;20115;-51
2022/10/21 02:06:02;;;;;;;15.85;12.88;;;8.50;99.90;;;;;;5092391;28;20020;-50
2022/10/21 02:08:28;;;;;;;14.77;11.30;;;8.50;99.90;;;;;;5092091;28;20040;-53
2022/10/21 02:10:57;;;;;;;16.73;12.88;;;8.60;99.90;;;;;;5092237;28;20030;-53
2022/10/21 02:13:28;;;;;;;19.00;10.95;;;8.50;99.90;;;;;;5092221;28;20081;-57
2022/10/21 02:15:59;;;;;;;16.65;12.98;;;8.50;99.90;;;;;;5092210;28;20062;-54
2022/10/21 02:18:25;;;;;;;17.10;11.82;;;8.60;99.90;;;;;;5092153;28;20031;-51
2022/10/21 02:21:03;;;;;;;18.13;12.68;;;8.70;99.90;;;;;;5092281;28;20023;-52
2022/10/21 02:24:12;;;;;;;16.83;11.27;;;8.70;99.90;;;;;;5092317;28;20519;-50
2022/10/21 02:26:37;;;;;;;23.88;12.38;;;8.80;99.90;;;;;;5046632;28;20529;-52
2022/10/21 02:29:03;;;;;;;19.73;12.48;;;8.80;99.90;;;;;;5092237;28;20032;-51
2022/10/21 02:31:57;;;;;;;21.83;13.25;;;8.80;99.90;;;;;;5091941;28;20040;-50
2022/10/21 02:34:46;;;;;;;21.80;13.90;;;8.80;99.90;;;;;;5091845;28;20028;-51
2022/10/21 02:37:44;;;;;;;22.67;13.43;;;8.90;99.90;;;;;;5091899;28;20028;-53
2022/10/21 02:40:39;;;;;;;22.05;14.00;;;8.90;99.90;;;;;;5091704;28;20024;-52
2022/10/21 02:43:10;;;;;;;19.98;12.07;;;8.90;99.90;;;;;;5082293;28;20863;-52
2022/10/21 02:45:38;;;;;;;20.10;12.25;;;8.80;99.90;;;;;;5091789;28;20118;-51
2022/10/21 02:48:05;;;;;;;27.50;12.30;;;8.80;99.90;;;;;;5091672;28;20402;-54
2022/10/21 02:50:31;;;;;;;20.73;13.57;;;8.90;99.90;;;;;;5091924;28;20545;-51
2022/10/21 02:52:57;;;;;;;14.80;11.48;;;8.90;99.90;;;;;;5091749;28;20024;-51
2022/10/21 02:55:22;;;;;;;19.98;11.48;;;8.90;99.90;;;;;;5091627;28;20024;-51
2022/10/21 02:57:48;;;;;;;21.90;11.80;;;8.90;99.90;;;;;;5091640;28;20035;-51
2022/10/21 03:00:14;;;;;;;23.05;11.63;;;8.90;99.90;;;;;;5091662;28;20040;-52
2022/10/21 03:02:41;;;;;;;18.70;12.00;;;9.00;99.90;;;;;;5091737;28;20032;-52
2022/10/21 03:05:08;;;;;;;16.40;11.88;;;9.00;99.90;;;;;;5091734;28;20031;-52
2022/10/21 03:07:34;;;;;;;17.15;11.23;;;8.90;99.90;;;;;;5091523;28;20507;-51
2022/10/21 03:09:59;;;;;;;14.88;11.73;;;9.00;99.90;;;;;;5091366;28;20028;-51
2022/10/21 03:12:26;;;;;;;18.85;12.60;;;9.00;99.90;;;;;;5091315;28;20043;-51
2022/10/21 03:14:51;;;;;;;19.85;12.20;;;9.00;99.90;;;;;;5091201;28;20024;-52
2022/10/21 03:17:17;;;;;;;19.75;12.13;;;8.90;99.90;;;;;;5091354;28;20032;-52
2022/10/21 03:19:42;;;;;;;16.02;12.10;;;8.90;99.90;;;;;;5091512;28;20070;-51
2022/10/21 03:22:08;;;;;;;27.33;13.98;;;8.90;99.90;;;;;;5091380;28;20039;-51
2022/10/21 03:24:34;;;;;;;20.85;12.80;;;8.90;99.90;;;;;;5091344;28;20044;-53
2022/10/21 03:26:59;;;;;;;21.25;12.68;;;8.90;99.90;;;;;;5091396;28;20032;-52
2022/10/21 03:29:25;;;;;;;17.38;12.52;;;8.90;99.90;;;;;;5091408;28;20039;-52
2022/10/21 03:31:50;;;;;;;19.27;14.18;;;8.90;99.90;;;;;;5091227;28;20020;-51
2022/10/21 03:34:16;;;;;;;26.80;13.05;;;8.80;99.90;;;;;;5091197;28;20051;-52
2022/10/21 03:36:42;;;;;;;19.98;12.57;;;8.90;99.90;;;;;;5091427;28;20027;-51
2022/10/21 03:39:08;;;;;;;18.23;12.23;;;8.80;99.90;;;;;;5091094;28;20514;-52
2022/10/21 03:41:34;;;;;;;18.38;13.15;;;8.90;99.90;;;;;;5091259;28;20103;-52
2022/10/21 03:44:00;;;;;;;23.15;12.30;;;8.90;99.90;;;;;;5091326;28;20170;-50
2022/10/21 03:46:25;;;;;;;25.15;13.32;;;8.90;99.90;;;;;;5094550;28;20115;-53
2022/10/21 03:48:51;;;;;;;17.35;13.98;;;8.90;99.90;;;;;;5095159;28;20032;-52
2022/10/21 03:51:17;;;;;;;19.30;13.05;;;8.90;99.90;;;;;;5094983;28;20417;-51
2022/10/21 03:53:42;;;;;;;21.50;13.70;;;8.90;99.90;;;;;;5093747;28;20054;-50
2022/10/21 03:56:08;;;;;;;20.10;13.52;;;8.90;99.90;;;;;;5094842;28;20062;-51
2022/10/21 03:58:34;;;;;;;21.90;13.65;;;8.90;99.90;;;;;;5094914;28;20024;-51
2022/10/21 04:01:00;;;;;;;18.02;12.40;;;8.90;99.90;;;;;;5094876;28;20024;-51
2022/10/21 04:03:26;;;;;;;17.23;12.95;;;8.80;99.90;;;;;;5094968;28;20035;-52
2022/10/21 04:05:52;;;;;;;25.25;13.93;;;8.90;99.90;;;;;;5094902;28;20028;-52
2022/10/21 04:08:18;;;;;;;21.88;13.43;;;8.80;99.90;;;;;;5094541;28;20384;-51
2022/10/21 04:10:44;;;;;;;26.08;14.52;;;8.80;99.90;;;;;;5094719;28;20031;-54
2022/10/21 04:13:10;;;;;;;21.80;14.05;;;8.80;99.90;;;;;;5094568;28;20032;-50
2022/10/21 04:15:35;;;;;;;24.65;14.55;;;8.80;99.90;;;;;;5094627;28;20077;-54
2022/10/21 04:18:01;;;;;;;22.10;14.23;;;8.70;99.90;;;;;;5094520;28;20020;-52
2022/10/21 04:20:27;;;;;;;21.38;14.07;;;8.80;99.90;;;;;;5093126;28;20024;-51
2022/10/21 04:22:52;;;;;;;23.27;13.70;;;8.80;99.90;;;;;;5094529;28;20500;-53
2022/10/21 04:25:18;;;;;;;21.85;15.05;;;8.80;99.90;;;;;;5094179;28;20119;-52
2022/10/21 04:27:44;;;;;;;22.13;14.23;;;8.70;99.90;;;;;;5094210;28;20072;-51
2022/10/21 04:30:09;;;;;;;23.02;14.50;;;8.80;99.90;;;;;;5094314;28;20076;-53
2022/10/21 04:32:35;;;;;;;20.85;14.07;;;8.80;99.90;;;;;;5094352;28;20032;-52
2022/10/21 04:35:01;;;;;;;20.85;15.20;;;8.80;99.90;;;;;;5094361;28;20024;-52
2022/10/21 04:37:26;;;;;;;23.83;14.77;;;8.80;99.90;;;;;;5094040;28;20034;-52
2022/10/21 04:39:52;;;;;;;28.58;15.02;;;8.70;99.90;;;;;;5092976;28;20024;-53
2022/10/21 04:42:18;;;;;;;21.73;15.25;;;8.80;99.90;;;;;;5094026;28;20020;-51
2022/10/21 04:44:43;;;;;;;24.75;14.95;;;8.80;99.90;;;;;;5094116;28;20035;-52
2022/10/21 04:47:09;;;;;;;19.80;13.77;;;8.80;99.90;;;;;;5093924;28;20085;-52
2022/10/21 04:49:34;;;;;;;21.88;14.63;;;8.80;99.90;;;;;;5093932;28;20024;-55
2022/10/21 04:52:03;;;;;;;22.88;15.70;;;8.80;99.90;;;;;;5093766;28;20076;-51
2022/10/21 04:54:29;;;;;;;22.27;16.00;;;8.70;99.90;;;;;;5093984;28;20028;-51
2022/10/21 04:56:54;;;;;;;19.77;14.65;;;8.70;99.90;;;;;;5093701;28;20024;-55
2022/10/21 04:59:20;;;;;;;25.77;16.45;;;8.70;99.90;;;;;;5093695;28;20063;-53
2022/10/21 05:01:46;;;;;;;25.17;16.00;;;8.70;99.90;;;;;;5093805;28;20032;-52
2022/10/21 05:04:11;;;;;;;23.55;16.35;;;8.70;99.90;;;;;;5093711;28;20026;-53
2022/10/21 05:06:37;;;;;;;31.45;16.23;;;8.60;99.90;;;;;;5093570;28;20028;-53
2022/10/21 05:09:03;;;;;;;28.25;16.10;;;8.60;99.90;;;;;;5093323;28;20072;-52
2022/10/21 05:11:29;;;;;;;23.70;16.80;;;8.60;99.90;;;;;;5093647;28;20054;-53
2022/10/21 05:13:55;;;;;;;22.55;15.60;;;8.60;99.90;;;;;;5091904;28;20032;-56
2022/10/21 05:16:20;;;;;;;31.20;16.70;;;8.60;99.90;;;;;;5093229;28;20071;-52
2022/10/21 05:18:46;;;;;;;24.95;17.25;;;8.60;99.90;;;;;;5092960;28;20081;-54
2022/10/21 05:21:12;;;;;;;23.98;16.83;;;8.60;99.90;;;;;;5092264;28;20024;-52
2022/10/21 05:23:37;;;;;;;22.20;17.20;;;8.60;99.90;;;;;;5092487;28;20517;-52
2022/10/21 05:26:03;;;;;;;29.08;17.25;;;8.60;99.90;;;;;;5092684;28;20046;-52
2022/10/21 05:28:29;;;;;;;27.15;18.20;;;8.60;99.90;;;;;;5092145;28;20024;-52
2022/10/21 05:30:54;;;;;;;27.95;16.05;;;8.60;99.90;;;;;;5092050;28;20028;-51
2022/10/21 05:33:20;;;;;;;25.92;16.98;;;8.70;99.90;;;;;;5092033;28;20032;-51
2022/10/21 05:35:56;;;;;;;27.58;16.40;;;8.60;99.90;;;;;;5092439;28;20026;-52
2022/10/21 05:38:22;;;;;;;26.55;17.60;;;8.70;99.90;;;;;;5092751;28;20081;-50
2022/10/21 05:40:48;;;;;;;28.10;17.40;;;8.70;99.90;;;;;;5093008;28;20394;-51
2022/10/21 05:43:13;;;;;;;26.60;16.38;;;8.70;99.90;;;;;;5092852;28;20047;-51
2022/10/21 05:45:39;;;;;;;29.17;17.13;;;8.80;99.90;;;;;;5092780;28;20035;-53
2022/10/21 05:48:05;;;;;;;26.95;16.35;;;8.80;99.90;;;;;;5090555;28;20027;-51
2022/10/21 05:50:30;;;;;;;30.75;18.42;;;8.80;99.90;;;;;;5091692;28;20028;-51
2022/10/21 05:52:57;;;;;;;30.08;18.13;;;8.70;99.90;;;;;;5091300;28;20024;-51
2022/10/21 05:55:23;;;;;;;29.48;17.23;;;8.80;99.90;;;;;;5091320;28;20103;-51
2022/10/21 05:57:49;;;;;;;30.08;17.85;;;8.80;99.90;;;;;;5091437;28;20095;-52
2022/10/21 06:00:14;;;;;;;29.95;17.13;;;8.70;99.90;;;;;;5091119;28;20413;-53
2022/10/21 06:02:40;;;;;;;26.80;17.50;;;8.70;99.90;;;;;;5091201;28;20666;-51
2022/10/21 06:05:06;;;;;;;33.75;18.77;;;8.70;99.90;;;;;;5091149;28;20478;-50
2022/10/21 06:07:32;;;;;;;26.67;18.55;;;8.70;99.90;;;;;;5090261;28;20115;-51
2022/10/21 06:09:58;;;;;;;26.17;18.40;;;8.70;99.90;;;;;;5091071;28;20103;-52
2022/10/21 06:12:23;;;;;;;24.52;17.02;;;8.70;99.90;;;;;;5090905;28;20459;-52
2022/10/21 06:14:49;;;;;;;25.77;17.17;;;8.70;99.90;;;;;;5090856;28;20024;-51
2022/10/21 06:17:15;;;;;;;28.95;16.65;;;8.70;99.90;;;;;;5090767;28;20024;-51
2022/10/21 06:19:40;;;;;;;30.02;17.73;;;8.60;99.90;;;;;;5090946;28;20116;-51
2022/10/21 06:22:06;;;;;;;25.40;17.67;;;8.70;99.90;;;;;;5090622;28;20032;-52
2022/10/21 06:24:32;;;;;;;27.10;16.80;;;8.70;99.90;;;;;;5089852;28;20065;-51
2022/10/21 06:26:58;;;;;;;30.73;17.55;;;8.70;99.90;;;;;;5092216;28;20028;-52
2022/10/21 06:29:24;;;;;;;29.75;16.17;;;8.70;99.90;;;;;;5090817;28;20427;-53
2022/10/21 06:31:49;;;;;;;35.30;17.63;;;8.70;99.90;;;;;;5091884;28;20059;-52
2022/10/21 06:34:16;;;;;;;30.98;18.02;;;8.70;99.90;;;;;;5091985;28;20356;-52
2022/10/21 06:36:41;;;;;;;31.13;17.25;;;8.80;99.90;;;;;;5092000;28;20021;-55
2022/10/21 06:39:12;;;;;;;25.10;17.13;;;8.80;99.90;;;;;;5091892;28;20464;-54
2022/10/21 06:41:38;;;;;;;30.52;18.02;;;8.80;99.90;;;;;;5091908;28;20024;-52
2022/10/21 06:44:04;;;;;;;34.17;17.17;;;8.80;99.90;;;;;;5090438;28;20023;-52
2022/10/21 06:46:30;;;;;;;31.20;18.52;;;8.90;99.90;;;;;;5091768;28;20024;-53
2022/10/21 06:48:55;;;;;;;25.70;17.70;;;8.80;99.90;;;;;;5091885;28;20035;-51
2022/10/21 06:51:23;;;;;;;22.67;17.23;;;8.90;99.90;;;;;;5091337;28;20034;-51
2022/10/21 06:53:58;;;;;;;35.67;18.38;;;8.90;99.90;;;;;;5091633;28;20039;-54
2022/10/21 06:56:24;;;;;;;25.42;19.40;;;8.90;99.90;;;;;;5091573;28;20422;-51
2022/10/21 06:58:50;;;;;;;21.25;16.85;;;9.00;99.90;;;;;;5091589;28;20132;-53
2022/10/21 07:01:18;;;;;;;28.85;18.88;;;9.10;99.90;;;;;;5091524;28;20522;-52
2022/10/21 07:03:44;;;;;;;26.17;18.42;;;9.10;99.90;;;;;;5091615;28;20360;-55
2022/10/21 07:06:10;;;;;;;28.75;17.98;;;9.10;99.90;;;;;;5091536;28;20030;-50
2022/10/21 07:08:36;;;;;;;24.35;17.25;;;9.20;99.90;;;;;;5091454;28;20040;-52
2022/10/21 07:11:02;;;;;;;30.67;17.83;;;9.30;99.90;;;;;;5091792;28;20027;-53
2022/10/21 07:13:28;;;;;;;39.35;19.08;;;9.20;99.90;;;;;;5091334;28;20427;-51
2022/10/21 07:16:22;;;;;;;36.33;19.23;;;9.20;99.90;;;;;;5090098;28;20016;-53
2022/10/21 07:18:48;;;;;;;29.40;17.80;;;9.20;99.90;;;;;;5091423;28;20031;-53
2022/10/21 07:21:20;;;;;;;24.15;18.60;;;9.20;99.90;;;;;;5092672;28;20020;-52
2022/10/21 07:23:47;;;;;;;30.95;18.67;;;9.20;99.90;;;;;;5093450;28;20570;-54
2022/10/21 07:26:13;;;;;;;27.90;18.98;;;9.20;99.90;;;;;;5094180;28;20476;-51
2022/10/21 07:28:40;;;;;;;29.42;19.05;;;9.20;99.90;;;;;;5094150;28;20043;-52
2022/10/21 07:31:07;;;;;;;26.02;19.80;;;9.20;99.90;;;;;;5094103;28;20020;-52
2022/10/21 07:33:34;;;;;;;29.52;17.88;;;9.30;99.90;;;;;;5095324;28;20028;-54
2022/10/21 07:36:05;;;;;;;28.17;17.13;;;9.40;99.90;;;;;;5095306;28;20020;-52
2022/10/21 07:38:31;;;;;;;27.75;19.92;;;9.60;99.90;;;;;;5093988;28;20016;-51
2022/10/21 07:40:58;;;;;;;22.85;16.95;;;9.60;99.90;;;;;;5095182;28;20336;-57
2022/10/21 07:43:23;;;;;;;20.83;17.00;;;9.80;99.90;;;;;;5094921;28;20028;-54
2022/10/21 07:45:49;;;;;;;27.98;17.55;;;9.80;99.90;;;;;;5095279;28;20028;-53
2022/10/21 07:48:15;;;;;;;20.63;16.63;;;9.90;99.90;;;;;;5093610;28;20456;-56
2022/10/21 07:50:41;;;;;;;25.90;17.92;;;10.00;99.90;;;;;;5094938;28;20120;-53
2022/10/21 07:53:06;;;;;;;21.30;17.35;;;10.00;99.90;;;;;;5094224;28;20032;-53
2022/10/21 07:55:32;;;;;;;24.77;17.10;;;10.00;99.90;;;;;;5094394;28;20016;-55
2022/10/21 07:57:59;;;;;;;26.10;18.88;;;10.10;99.90;;;;;;5094956;28;20093;-53
2022/10/21 08:00:24;;;;;;;37.25;24.77;;;10.20;99.90;;;;;;5094592;28;20115;-55
2022/10/21 08:02:54;;;;;;;43.28;32.83;;;10.30;99.90;;;;;;5094666;28;20635;-54
2022/10/21 08:05:21;;;;;;;23.20;19.13;;;10.30;99.90;;;;;;5094687;28;20035;-56
2022/10/21 08:07:46;;;;;;;38.22;18.75;;;10.40;99.90;;;;;;5094700;28;20046;-52
2022/10/21 08:10:12;;;;;;;28.83;18.45;;;10.40;99.90;;;;;;5094297;28;20442;-55
2022/10/21 08:12:37;;;;;;;23.65;17.65;;;10.40;99.90;;;;;;5094478;28;20035;-53
2022/10/21 08:15:04;;;;;;;31.63;17.30;;;10.40;99.90;;;;;;5094467;28;20028;-50
2022/10/21 08:17:29;;;;;;;43.95;19.00;;;10.40;99.90;;;;;;5095477;28;20016;-52
2022/10/21 08:19:55;;;;;;;36.58;20.92;;;10.30;99.90;;;;;;5104745;28;20554;-52
2022/10/21 08:22:21;;;;;;;32.47;19.13;;;10.20;99.90;;;;;;5094410;28;20051;-53
2022/10/21 08:24:47;;;;;;;37.13;19.02;;;10.30;99.90;;;;;;5093145;28;20391;-55
2022/10/21 08:27:18;;;;;;;33.33;27.50;;;10.30;99.90;;;;;;5094229;28;20043;-53
2022/10/21 08:29:43;;;;;;;32.83;19.92;;;10.30;99.90;;;;;;5094426;28;20032;-52
2022/10/21 08:32:09;;;;;;;30.33;19.63;;;10.20;99.90;;;;;;5093504;28;20028;-53
2022/10/21 08:34:34;;;;;;;29.83;21.27;;;10.30;99.90;;;;;;5094052;28;20035;-52
2022/10/21 08:37:00;;;;;;;35.40;25.20;;;10.30;99.90;;;;;;5094375;28;20020;-54
2022/10/21 08:39:26;;;;;;;30.27;22.08;;;10.40;99.90;;;;;;5093980;28;20443;-51
2022/10/21 08:41:57;;;;;;;36.45;20.70;;;10.50;99.90;;;;;;5094137;28;20028;-54
2022/10/21 08:44:34;;;;;;;33.90;19.35;;;10.60;99.90;;;;;;5093991;28;20024;-51
2022/10/21 08:47:17;;;;;;;25.38;17.88;;;10.70;99.90;;;;;;5093788;28;20028;-54
2022/10/21 08:49:53;;;;;;;23.98;18.85;;;10.70;99.90;;;;;;5093974;28;21093;-50
2022/10/21 08:52:24;;;;;;;28.05;17.63;;;10.70;99.90;;;;;;5092358;28;20475;-52
2022/10/21 08:54:58;;;;;;;27.17;18.85;;;10.70;99.90;;;;;;5094037;28;20028;-55
2022/10/21 08:57:24;;;;;;;;;;;10.90;99.90;;;;;;5094293;28;20436;-51
2022/10/21 08:59:49;;;;;;;28.55;16.15;;;11.00;99.90;;;;;;5093834;28;19950;-53
2022/10/21 09:02:15;;;;;;;23.35;16.45;;;11.10;99.90;;;;;;5092039;28;20363;-55
2022/10/21 09:05:05;;;;;;;22.67;15.52;;;11.20;99.90;;;;;;5092429;28;20017;-54
2022/10/21 09:07:50;;;;;;;31.73;15.98;;;11.60;99.90;;;;;;5093463;28;20040;-55
2022/10/21 09:10:27;;;;;;;18.67;15.38;;;11.70;99.90;;;;;;5093559;28;20479;-55
2022/10/21 09:13:11;;;;;;;30.65;16.90;;;11.90;99.90;;;;;;5093568;28;20093;-53
2022/10/21 09:16:05;;;;;;;;;;;12.10;99.90;;;;;;5093581;28;20059;-56
2022/10/21 09:18:49;;;;;;;;;;;12.00;99.90;;;;;;5084675;28;19908;-54
2022/10/21 09:21:34;;;;;;;19.42;14.27;;;12.00;99.90;;;;;;5093410;28;19904;-53
2022/10/21 09:24:12;;;;;;;22.88;16.55;;;11.70;99.90;;;;;;5093318;28;20560;-52
2022/10/21 09:26:40;;;;;;;20.88;15.48;;;11.50;99.90;;;;;;5093325;28;20086;-53
2022/10/21 09:29:28;;;;;;;20.52;16.02;;;11.50;99.90;;;;;;5091836;28;20028;-56
2022/10/21 09:32:14;;;;;;;20.23;16.23;;;11.60;99.90;;;;;;5093036;28;20047;-52
2022/10/21 09:34:45;;;;;;;27.50;16.77;;;11.50;99.90;;;;;;5093199;28;20068;-55
2022/10/21 09:37:25;;;;;;;30.25;17.48;;;11.50;99.90;;;;;;5092626;28;20024;-54
2022/10/21 09:40:06;;;;;;;25.85;16.73;;;11.50;99.90;;;;;;5092957;28;20016;-53
2022/10/21 09:42:31;;;;;;;23.25;17.48;;;11.40;99.90;;;;;;5091993;28;20032;-53
2022/10/21 09:44:57;;;;;;;21.27;15.38;;;11.50;99.90;;;;;;5093083;28;20132;-53
2022/10/21 09:47:24;;;;;;;33.83;15.60;;;11.50;99.90;;;;;;5092521;28;20028;-54
2022/10/21 09:49:57;;;;;;;22.35;15.02;;;11.50;99.90;;;;;;5092924;28;20463;-54
2022/10/21 09:52:29;;;;;;;20.73;15.45;;;11.60;99.90;;;;;;5090939;28;20531;-53
2022/10/21 09:54:55;;;;;;;22.08;16.35;;;11.70;99.90;;;;;;5091311;28;20052;-55
2022/10/21 09:57:42;;;;;;;20.52;16.45;;;11.60;99.90;;;;;;5092334;28;20026;-55
2022/10/21 10:00:09;;;;;;;21.48;16.58;;;11.50;99.90;;;;;;5092540;28;20039;-55
2022/10/21 10:02:41;;;;;;;20.67;16.55;;;11.70;99.90;;;;;;5092546;28;20657;-52
2022/10/21 10:05:46;;;;;;;25.20;16.70;;;11.70;99.90;;;;;;5092507;28;20022;-52
2022/10/21 10:08:43;;;;;;;21.95;15.68;;;11.50;99.90;;;;;;5092244;28;20040;-53
2022/10/21 10:11:19;;;;;;;19.42;15.18;;;11.70;99.90;;;;;;5090629;28;20036;-52
2022/10/21 10:13:50;;;;;;;26.25;15.15;;;11.70;99.90;;;;;;5092432;28;20035;-51
2022/10/21 10:16:26;;;;;;;31.45;16.05;;;11.70;99.90;;;;;;5092142;28;20035;-51
2022/10/21 10:19:22;;;;;;;20.55;15.15;;;11.80;99.90;;;;;;5092470;28;20059;-56
2022/10/21 10:22:13;;;;;;;30.77;16.70;;;11.90;99.90;;;;;;5092249;28;20016;-52
2022/10/21 10:24:41;;;;;;;20.35;15.30;;;11.80;99.90;;;;;;5092121;28;20028;-52
2022/10/21 10:27:19;;;;;;;24.73;15.45;;;11.90;99.90;;;;;;5090564;28;20323;-54
2022/10/21 10:29:52;;;;;;;26.27;15.45;;;12.10;99.90;;;;;;5092033;28;20052;-51
2022/10/21 10:32:18;;;;;;;29.67;15.70;;;12.10;99.90;;;;;;5091865;28;20019;-56
2022/10/21 10:35:06;;;;;;;25.60;17.50;;;12.20;99.90;;;;;;5090753;28;20044;-55
2022/10/21 10:37:35;;;;;;;28.20;14.88;;;12.30;99.90;;;;;;5091954;28;20110;-54
2022/10/21 10:40:06;;;;;;;25.25;15.73;;;12.30;99.90;;;;;;5091269;28;20063;-51
2022/10/21 10:42:41;;;;;;;28.02;16.58;;;12.40;99.90;;;;;;5090913;28;20553;-54
2022/10/21 10:45:18;;;;;;;26.75;16.95;;;12.30;99.90;;;;;;5091229;28;20024;-52
2022/10/21 10:47:54;;;;;;;19.52;15.48;;;12.40;99.90;;;;;;5076063;28;20020;-52
2022/10/21 10:50:40;;;;;;;21.73;15.98;;;12.50;99.90;;;;;;5072465;28;20028;-51
2022/10/21 10:53:24;;;;;;;17.45;13.73;;;12.50;99.90;;;;;;5078806;28;20685;-52
2022/10/21 10:56:25;;;;;;;27.52;16.58;;;12.70;99.90;;;;;;5080797;28;20028;-52
2022/10/21 10:59:05;;;;;;;22.95;14.35;;;12.80;99.90;;;;;;4995847;28;20031;-52
2022/10/21 11:01:41;;;;;;;30.63;15.95;;;12.80;99.90;;;;;;5081276;28;20024;-53
2022/10/21 11:04:26;;;;;;;16.65;13.35;;;12.80;99.90;;;;;;5075966;28;20670;-51
2022/10/21 11:06:57;;;;;;;27.15;14.27;;;13.10;99.90;;;;;;5060750;28;20033;-53
2022/10/21 11:09:24;;;;;;;19.33;14.15;;;13.10;99.90;;;;;;5060262;28;20114;-51
2022/10/21 11:11:53;;;;;;;22.52;13.57;;;13.30;99.90;;;;;;5060970;28;20036;-53
2022/10/21 11:14:19;;;;;;;17.30;12.45;;;13.60;99.90;;;;;;5059996;28;20029;-51
2022/10/21 11:16:54;;;;;;;18.85;13.18;;;13.70;99.90;;;;;;5060588;28;20028;-51
2022/10/21 11:19:34;;;;;;;27.23;14.15;;;13.90;99.90;;;;;;5060245;28;20021;-55
2022/10/21 11:22:19;;;;;;;28.02;14.82;;;13.80;99.90;;;;;;5060933;28;20514;-53
2022/10/21 11:25:14;;;;;;;23.40;13.40;;;13.60;99.90;;;;;;5060366;28;20024;-50
2022/10/21 11:27:42;;;;;;;22.85;13.13;;;13.50;99.90;;;;;;5059268;28;20021;-51
2022/10/21 11:30:22;;;;;;;17.23;12.77;;;13.50;99.90;;;;;;5063004;28;20055;-53
2022/10/21 11:33:03;;;;;;;15.68;12.60;;;13.40;99.90;;;;;;5060266;28;20029;-51
2022/10/21 11:35:56;;;;;;;20.58;12.75;;;13.50;99.90;;;;;;5060269;28;20031;-52
2022/10/21 11:38:49;;;;;;;17.15;12.25;;;13.60;99.90;;;;;;5079000;28;20646;-52
2022/10/21 11:41:31;;;;;;;17.17;12.85;;;13.60;99.90;;;;;;5078462;28;20024;-51
2022/10/21 11:44:09;;;;;;;18.35;12.93;;;13.60;99.90;;;;;;5060326;28;20040;-55
2022/10/21 11:46:55;;;;;;;17.08;12.40;;;13.50;99.90;;;;;;5060278;28;20059;-52
2022/10/21 11:49:36;;;;;;;18.80;13.88;;;13.40;99.90;;;;;;5060149;28;20042;-53
2022/10/21 11:52:30;;;;;;;27.52;12.52;;;13.30;99.90;;;;;;5060293;28;20402;-51
2022/10/21 11:55:14;;;;;;;17.20;12.82;;;13.10;99.90;;;;;;5060260;28;20510;-51
2022/10/21 11:58:14;;;;;;;19.52;13.25;;;12.90;99.90;;;;;;5060134;28;20039;-51
2022/10/21 12:01:10;;;;;;;18.83;14.07;;;13.00;99.90;;;;;;5060307;28;20024;-52
2022/10/21 12:03:46;;;;;;;23.98;13.43;;;13.10;99.90;;;;;;5059973;28;20102;-52
2022/10/21 12:06:30;;;;;;;20.23;12.77;;;13.10;99.90;;;;;;5060988;28;20055;-51
2022/10/21 12:09:04;;;;;;;25.55;13.13;;;13.10;99.90;;;;;;5063761;28;20488;-52
2022/10/21 12:11:37;;;;;;;18.40;12.15;;;13.10;99.90;;;;;;5062774;28;20036;-51
2022/10/21 12:14:28;;;;;;;27.23;12.75;;;13.30;99.90;;;;;;5063271;28;20144;-55
2022/10/21 12:16:56;;;;;;;17.77;12.60;;;13.70;99.90;;;;;;5063745;28;20120;-52
2022/10/21 12:19:24;;;;;;;19.80;13.30;;;13.90;99.90;;;;;;5063857;28;20262;-51
2022/10/21 12:21:50;;;;;;;21.13;13.63;;;14.10;99.90;;;;;;5063705;28;20016;-52
2022/10/21 12:24:43;;;;;;;19.45;12.50;;;14.10;99.90;;;;;;5063069;28;20028;-52
2022/10/21 12:27:44;;;;;;;25.17;15.57;;;14.20;99.90;;;;;;5063016;28;20408;-51
2022/10/21 12:30:15;;;;;;;16.40;12.02;;;14.70;99.90;;;;;;5006426;28;20048;-55
2022/10/21 12:33:02;;;;;;;22.25;13.52;;;14.60;99.90;;;;;;5079616;28;20029;-55
2022/10/21 12:35:46;;;;;;;19.73;12.20;;;15.10;99.90;;;;;;5065289;28;20032;-55
2022/10/21 12:41:41;;;;;;;22.85;12.27;;;15.80;99.90;;;;;;5063148;28;20083;-51
2022/10/21 12:44:25;;;;;;;18.60;12.63;;;14.80;99.90;;;;;;5074838;28;22614;-51
2022/10/21 12:46:55;;;;;;;;;;;14.80;99.90;;;;;;5080245;28;20032;-52
2022/10/21 12:49:26;;;;;;;24.75;12.98;;;15.00;99.90;;;;;;5082748;28;20321;-51
2022/10/21 12:51:57;;;;;;;23.27;14.60;;;14.80;99.90;;;;;;5082693;28;20459;-54
2022/10/21 12:54:38;;;;;;;38.17;14.88;;;14.50;99.90;;;;;;5064295;28;20033;-50
2022/10/21 12:57:21;;;;;;;20.65;14.35;;;14.20;99.90;;;;;;5062727;28;20092;-52
2022/10/21 12:59:47;;;;;;;25.40;15.05;;;14.40;99.90;;;;;;5063072;28;20020;-50